createdAt,value
2023-04-17T00:02:04.144Z,101348.81
2023-04-17T00:05:08.214Z,101346.09
2023-04-17T00:08:09.861Z,101345.25
2023-04-17T00:11:11.361Z,101350.69
2023-04-17T00:14:12.953Z,101346.22
2023-04-17T00:17:14.421Z,101345.38
2023-04-17T00:20:15.995Z,101348.94
2023-04-17T00:23:17.549Z,101347.13
2023-04-17T00:26:19.594Z,101345.53
2023-04-17T00:29:21.181Z,101350.81
2023-04-17T00:32:22.883Z,101340.97
2023-04-17T00:35:24.401Z,101341.94
2023-04-17T00:38:26.123Z,101350.97
2023-04-17T00:41:27.721Z,101350.06
2023-04-17T00:44:29.582Z,101343.78
2023-04-17T00:47:31.082Z,101345.53
2023-04-17T00:50:33.600Z,101343.78
2023-04-17T00:53:35.940Z,101349.22
2023-04-17T00:56:38.558Z,101348.38
2023-04-17T00:59:40.285Z,101337.53
2023-04-17T01:02:41.881Z,101344.66
2023-04-17T01:05:50.026Z,101335.53
2023-04-17T01:08:51.612Z,101345.66
2023-04-17T01:11:53.216Z,101337.53
2023-04-17T01:14:56.596Z,101342.94
2023-04-17T01:17:58.611Z,101341.25
2023-04-17T01:21:01.375Z,101344.06
2023-04-17T01:24:03.377Z,101344.06
2023-04-17T01:27:06.894Z,101346.78
2023-04-17T01:30:09.278Z,101356.63
2023-04-17T01:33:17.945Z,101348.66
2023-04-17T01:36:19.607Z,101356.63
2023-04-17T01:39:21.624Z,101349.50
2023-04-17T01:42:23.270Z,101355.94
2023-04-17T01:45:24.791Z,101361.34
2023-04-17T01:48:26.307Z,101365.78
2023-04-17T01:51:27.923Z,101359.63
2023-04-17T01:54:29.744Z,101363.19
2023-04-17T01:57:33.103Z,101368.59
2023-04-17T02:00:34.693Z,101366.91
2023-04-17T02:03:36.444Z,101364.19
2023-04-17T02:06:38.057Z,101366.06
2023-04-17T02:09:39.591Z,101368.88
2023-04-17T02:12:42.396Z,101374.19
2023-04-17T02:15:44.518Z,101376.91
2023-04-17T02:18:48.636Z,101370.63
2023-04-17T02:21:50.115Z,101368.75
2023-04-17T02:24:51.605Z,101369.75
2023-04-17T02:27:56.109Z,101369.63
2023-04-17T02:30:59.022Z,101366.16
2023-04-17T02:34:00.625Z,101367.91
2023-04-17T02:37:02.406Z,101367.03
2023-04-17T02:40:07.282Z,101366.06
2023-04-17T02:43:08.845Z,101368.88
2023-04-17T02:46:11.197Z,101372.44
2023-04-17T02:49:12.875Z,101369.75
2023-04-17T02:52:14.660Z,101372.59
2023-04-17T02:55:16.786Z,101373.44
2023-04-17T02:58:18.480Z,101373.56
2023-04-17T03:01:20.079Z,101369.03
2023-04-17T03:04:22.011Z,101371.75
2023-04-17T03:07:23.799Z,101371.75
2023-04-17T03:10:25.698Z,101373.44
2023-04-17T03:13:27.410Z,101377.03
2023-04-17T03:16:29.046Z,101377.88
2023-04-17T03:19:34.496Z,101374.31
2023-04-17T03:22:36.631Z,101376.03
2023-04-17T03:25:39.816Z,101385.03
2023-04-17T03:28:42.020Z,101383.16
2023-04-17T03:31:43.527Z,101387.59
2023-04-17T03:34:45.059Z,101400.03
2023-04-17T03:37:46.678Z,101392.50
2023-04-17T03:40:48.518Z,101394.06
2023-04-17T03:43:50.206Z,101393.94
2023-04-17T03:46:51.662Z,101393.94
2023-04-17T03:49:53.515Z,101403.78
2023-04-17T03:52:55.815Z,101404.66
2023-04-17T03:55:59.604Z,101400.09
2023-04-17T03:59:05.978Z,101409.06
2023-04-17T04:02:12.426Z,101407.25
2023-04-17T04:05:15.086Z,101406.34
2023-04-17T04:08:17.790Z,101404.53
2023-04-17T04:11:23.810Z,101413.53
2023-04-17T04:14:25.615Z,101416.22
2023-04-17T04:17:27.192Z,101409.06
2023-04-17T04:20:28.943Z,101412.66
2023-04-17T04:23:45.469Z,101419.06
2023-04-17T04:26:49.667Z,101418.22
2023-04-17T04:29:51.999Z,101416.34
2023-04-17T04:32:56.888Z,101426.34
2023-04-17T04:36:01.374Z,101416.63
2023-04-17T04:39:05.636Z,101421.22
2023-04-17T04:42:11.059Z,101423.91
2023-04-17T04:45:24.708Z,101423.06
2023-04-17T04:48:28.706Z,101423.06
2023-04-17T04:51:31.833Z,101422.19
2023-04-17T04:54:33.520Z,101429.47
2023-04-17T04:57:36.652Z,101431.31
2023-04-17T05:00:39.048Z,101434.88
2023-04-17T05:03:40.960Z,101440.19
2023-04-17T05:06:44.779Z,101450.03
2023-04-17T05:09:46.334Z,101457.19
2023-04-17T05:12:50.204Z,101456.19
2023-04-17T05:15:52.139Z,101456.94
2023-04-17T05:18:58.988Z,101458.50
2023-04-17T05:22:32.846Z,101460.09
2023-04-17T05:25:43.112Z,101472.66
2023-04-17T05:28:45.297Z,101473.50
2023-04-17T05:31:51.804Z,101478.84
2023-04-17T05:35:11.064Z,101486.97
2023-04-17T05:38:14.175Z,101484.28
2023-04-17T05:41:15.722Z,101488.69
2023-04-17T05:44:18.909Z,101492.41
2023-04-17T05:47:20.575Z,101491.41
2023-04-17T05:50:22.108Z,101496.84
2023-04-17T05:53:23.862Z,101495.00
2023-04-17T05:56:30.023Z,101496.84
2023-04-17T05:59:31.665Z,101497.84
2023-04-17T06:02:34.268Z,101498.69
2023-04-17T06:05:36.106Z,101500.56
2023-04-17T06:08:38.087Z,101502.50
2023-04-17T06:11:39.694Z,101506.06
2023-04-17T06:14:41.558Z,101510.63
2023-04-17T06:17:44.367Z,101506.22
2023-04-17T06:20:46.359Z,101511.66
2023-04-17T06:23:48.232Z,101517.06
2023-04-17T06:26:51.659Z,101506.34
2023-04-17T06:29:53.207Z,101514.47
2023-04-17T06:32:55.143Z,101515.34
2023-04-17T06:35:56.678Z,101517.34
2023-04-17T06:39:05.681Z,101524.59
2023-04-17T06:42:07.713Z,101521.03
2023-04-17T06:45:13.821Z,101528.44
2023-04-17T06:48:15.352Z,101518.59
2023-04-17T06:51:20.595Z,101518.59
2023-04-17T06:54:22.398Z,101522.31
2023-04-17T06:57:24.011Z,101535.88
2023-04-17T07:00:25.693Z,101530.56
2023-04-17T07:03:27.278Z,101532.41
2023-04-17T07:06:29.132Z,101532.41
2023-04-17T07:09:30.633Z,101536.09
2023-04-17T07:12:32.895Z,101529.81
2023-04-17T07:15:34.403Z,101534.41
2023-04-17T07:18:35.991Z,101540.69
2023-04-17T07:21:37.717Z,101543.38
2023-04-17T07:24:39.253Z,101545.25
2023-04-17T07:27:40.749Z,101550.78
2023-04-17T07:30:42.637Z,101555.38
2023-04-17T07:33:44.276Z,101554.50
2023-04-17T07:36:47.182Z,101555.38
2023-04-17T07:39:50.240Z,101559.09
2023-04-17T07:42:52.741Z,101555.63
2023-04-17T07:45:55.535Z,101558.22
2023-04-17T07:48:57.052Z,101552.06
2023-04-17T07:51:58.605Z,101561.19
2023-04-17T07:55:00.261Z,101563.78
2023-04-17T07:58:03.749Z,101561.06
2023-04-17T08:01:08.259Z,101558.34
2023-04-17T08:04:10.113Z,101560.06
2023-04-17T08:07:12.725Z,101555.63
2023-04-17T08:10:14.424Z,101557.50
2023-04-17T08:13:16.270Z,101560.19
2023-04-17T08:16:17.816Z,101569.19
2023-04-17T08:19:19.440Z,101563.88
2023-04-17T08:22:24.044Z,101568.47
2023-04-17T08:25:25.653Z,101575.75
2023-04-17T08:28:27.220Z,101571.31
2023-04-17T08:31:28.974Z,101575.00
2023-04-17T08:34:31.968Z,101575.84
2023-04-17T08:37:35.537Z,101575.84
2023-04-17T08:40:37.720Z,101568.72
2023-04-17T08:43:40.190Z,101574.16
2023-04-17T08:46:42.094Z,101580.56
2023-04-17T08:49:45.852Z,101576.13
2023-04-17T08:52:49.277Z,101576.00
2023-04-17T08:55:50.771Z,101574.41
2023-04-17T08:58:52.335Z,101569.84
2023-04-17T09:02:04.429Z,101572.44
2023-04-17T09:05:18.790Z,101574.25
2023-04-17T09:08:23.941Z,101571.69
2023-04-17T09:11:26.267Z,101576.28
2023-04-17T09:14:31.467Z,101577.97
2023-04-17T09:17:37.791Z,101577.13
2023-04-17T09:20:48.536Z,101569.09
2023-04-17T09:23:58.837Z,101578.97
2023-04-17T09:27:27.330Z,101578.09
2023-04-17T09:30:36.799Z,101569.97
2023-04-17T09:33:55.856Z,101580.81
2023-04-17T09:36:57.419Z,101571.09
2023-04-17T09:40:00.635Z,101578.25
2023-04-17T09:43:09.481Z,101575.53
2023-04-17T09:46:11.498Z,101575.66
2023-04-17T09:49:16.082Z,101580.09
2023-04-17T09:52:18.404Z,101574.69
2023-04-17T09:55:21.554Z,101573.69
2023-04-17T09:58:23.390Z,101577.25
2023-04-17T10:01:25.550Z,101570.97
2023-04-17T10:04:29.178Z,101573.56
2023-04-17T10:07:31.849Z,101574.41
2023-04-17T10:10:34.808Z,101571.69
2023-04-17T10:13:42.506Z,101564.41
2023-04-17T10:16:44.437Z,101567.25
2023-04-17T10:19:49.107Z,101566.41
2023-04-17T10:22:54.849Z,101563.69
2023-04-17T10:26:25.281Z,101569.00
2023-04-17T10:30:12.931Z,101565.44
2023-04-17T10:33:15.744Z,101564.81
2023-04-17T10:36:39.308Z,101563.69
2023-04-17T10:39:51.978Z,101559.25
2023-04-17T10:43:04.279Z,101559.25
2023-04-17T10:46:10.185Z,101557.41
2023-04-17T10:49:14.293Z,101552.09
2023-04-17T10:52:41.345Z,101549.38
2023-04-17T10:55:52.364Z,101546.69
2023-04-17T10:59:01.093Z,101543.97
2023-04-17T11:02:04.869Z,101537.84
2023-04-17T11:05:07.660Z,101538.69
2023-04-17T11:08:09.971Z,101536.84
2023-04-17T11:11:14.591Z,101534.13
2023-04-17T11:14:22.440Z,101538.53
2023-04-17T11:17:24.036Z,101531.53
2023-04-17T11:20:27.955Z,101533.13
2023-04-17T11:23:33.944Z,101534.00
2023-04-17T11:26:48.117Z,101528.59
2023-04-17T11:29:49.660Z,101533.13
2023-04-17T11:32:52.513Z,101528.59
2023-04-17T11:35:54.243Z,101534.00
2023-04-17T11:38:57.126Z,101530.28
2023-04-17T11:41:58.684Z,101526.72
2023-04-17T11:45:06.702Z,101528.44
2023-04-17T11:48:12.896Z,101532.00
2023-04-17T11:51:18.013Z,101525.59
2023-04-17T11:54:26.964Z,101521.03
2023-04-17T11:57:28.491Z,101531.13
2023-04-17T12:00:30.581Z,101522.03
2023-04-17T12:03:35.720Z,101521.88
2023-04-17T12:06:38.100Z,101521.03
2023-04-17T12:09:39.633Z,101514.75
2023-04-17T12:12:41.214Z,101521.03
2023-04-17T12:15:42.771Z,101520.03
2023-04-17T12:18:45.740Z,101518.19
2023-04-17T12:21:51.950Z,101510.91
2023-04-17T12:24:53.475Z,101508.19
2023-04-17T12:27:56.985Z,101504.63
2023-04-17T12:30:58.597Z,101514.47
2023-04-17T12:34:00.279Z,101500.06
2023-04-17T12:37:01.759Z,101500.81
2023-04-17T12:40:04.005Z,101499.91
2023-04-17T12:43:06.586Z,101498.09
2023-04-17T12:46:08.171Z,101499.78
2023-04-17T12:49:10.131Z,101496.22
2023-04-17T12:52:11.784Z,101499.78
2023-04-17T12:55:13.395Z,101500.66
2023-04-17T12:58:15.163Z,101495.22
2023-04-17T13:01:16.742Z,101492.50
2023-04-17T13:04:18.975Z,101487.81
2023-04-17T13:07:20.847Z,101483.53
2023-04-17T13:10:22.471Z,101483.41
2023-04-17T13:13:23.974Z,101477.97
2023-04-17T13:16:26.040Z,101481.41
2023-04-17T13:19:27.549Z,101479.69
2023-04-17T13:22:29.015Z,101481.53
2023-04-17T13:25:31.484Z,101474.25
2023-04-17T13:28:32.976Z,101481.53
2023-04-17T13:31:34.757Z,101473.41
2023-04-17T13:34:36.279Z,101469.84
2023-04-17T13:37:37.766Z,101471.56
2023-04-17T13:40:40.745Z,101459.84
2023-04-17T13:43:42.218Z,101463.41
2023-04-17T13:46:44.179Z,101460.59
2023-04-17T13:49:45.810Z,101460.59
2023-04-17T13:52:47.292Z,101451.56
2023-04-17T13:55:49.269Z,101448.84
2023-04-17T13:58:52.175Z,101447.03
2023-04-17T14:01:53.877Z,101444.16
2023-04-17T14:04:55.489Z,101444.16
2023-04-17T14:07:57.079Z,101444.16
2023-04-17T14:10:58.611Z,101447.88
2023-04-17T14:14:00.220Z,101434.31
2023-04-17T14:17:01.839Z,101444.16
2023-04-17T14:20:04.032Z,101435.03
2023-04-17T14:23:05.488Z,101430.59
2023-04-17T14:26:07.618Z,101430.59
2023-04-17T14:29:10.622Z,101435.16
2023-04-17T14:32:12.532Z,101438.72
2023-04-17T14:35:14.033Z,101430.59
2023-04-17T14:38:15.540Z,101442.19
2023-04-17T14:41:17.442Z,101443.19
2023-04-17T14:44:20.295Z,101433.19
2023-04-17T14:47:21.840Z,101434.88
2023-04-17T14:50:23.381Z,101428.63
2023-04-17T14:53:24.833Z,101425.78
2023-04-17T14:56:26.453Z,101426.47
2023-04-17T14:59:28.420Z,101427.38
2023-04-17T15:02:38.038Z,101425.50
2023-04-17T15:05:39.835Z,101427.09
2023-04-17T15:08:41.554Z,101429.66
2023-04-17T15:11:43.075Z,101427.53
2023-04-17T15:14:45.030Z,101430.97
2023-04-17T15:17:46.516Z,101423.56
2023-04-17T15:20:48.166Z,101422.59
2023-04-17T15:23:49.653Z,101423.34
2023-04-17T15:26:51.226Z,101423.06
2023-04-17T15:29:52.744Z,101421.19
2023-04-17T15:32:54.315Z,101423.91
2023-04-17T15:35:58.098Z,101427.34
2023-04-17T15:39:00.746Z,101418.34
2023-04-17T15:42:02.355Z,101420.06
2023-04-17T15:45:04.444Z,101420.91
2023-04-17T15:48:06.096Z,101406.38
2023-04-17T15:51:07.910Z,101418.94
2023-04-17T15:54:11.712Z,101414.50
2023-04-17T15:57:13.264Z,101421.63
2023-04-17T16:00:15.275Z,101421.63
2023-04-17T16:03:16.946Z,101421.63
2023-04-17T16:06:20.366Z,101416.34
2023-04-17T16:09:24.289Z,101423.63
2023-04-17T16:12:27.981Z,101414.63
2023-04-17T16:15:30.378Z,101423.78
2023-04-17T16:18:31.831Z,101423.06
2023-04-17T16:21:33.350Z,101426.75
2023-04-17T16:24:34.804Z,101433.91
2023-04-17T16:27:37.014Z,101425.75
2023-04-17T16:30:38.589Z,101427.75
2023-04-17T16:33:40.675Z,101421.47
2023-04-17T16:36:45.380Z,101420.63
2023-04-17T16:39:47.217Z,101425.16
2023-04-17T16:42:48.762Z,101420.63
2023-04-17T16:45:50.300Z,101426.16
2023-04-17T16:48:51.854Z,101429.88
2023-04-17T16:51:53.843Z,101430.75
2023-04-17T16:54:55.300Z,101437.03
2023-04-17T16:57:59.894Z,101438.88
2023-04-17T17:01:01.502Z,101437.13
2023-04-17T17:04:03.076Z,101438.16
2023-04-17T17:07:04.780Z,101436.41
2023-04-17T17:10:07.166Z,101438.22
2023-04-17T17:13:08.698Z,101439.13
2023-04-17T17:16:10.239Z,101440.94
2023-04-17T17:19:11.896Z,101443.66
2023-04-17T17:22:13.505Z,101446.38
2023-04-17T17:25:14.979Z,101447.38
2023-04-17T17:28:16.501Z,101450.09
2023-04-17T17:31:18.214Z,101456.38
2023-04-17T17:34:26.542Z,101454.50
2023-04-17T17:37:28.656Z,101462.66
2023-04-17T17:40:30.292Z,101459.09
2023-04-17T17:43:31.767Z,101460.81
2023-04-17T17:46:35.684Z,101466.25
2023-04-17T17:49:37.356Z,101469.69
2023-04-17T17:52:38.852Z,101468.84
2023-04-17T17:55:40.422Z,101466.13
2023-04-17T17:58:41.901Z,101475.13
2023-04-17T18:01:43.482Z,101479.56
2023-04-17T18:04:45.116Z,101485.84
2023-04-17T18:07:46.612Z,101484.84
2023-04-17T18:10:48.125Z,101495.59
2023-04-17T18:13:49.639Z,101496.44
2023-04-17T18:16:51.291Z,101493.59
2023-04-17T18:19:52.814Z,101508.03
2023-04-17T18:22:54.314Z,101514.47
2023-04-17T18:25:57.743Z,101523.44
2023-04-17T18:28:59.328Z,101523.44
2023-04-17T18:32:00.821Z,101533.44
2023-04-17T18:35:02.803Z,101533.28
2023-04-17T18:38:04.324Z,101545.00
2023-04-17T18:41:05.805Z,101553.03
2023-04-17T18:44:07.304Z,101561.16
2023-04-17T18:47:08.774Z,101566.47
2023-04-17T18:50:11.332Z,101574.63
2023-04-17T18:53:12.926Z,101572.75
2023-04-17T18:56:15.091Z,101580.75
2023-04-17T18:59:16.785Z,101595.19
2023-04-17T19:02:18.287Z,101594.31
2023-04-17T19:05:21.309Z,101607.75
2023-04-17T19:08:22.822Z,101605.91
2023-04-17T19:11:24.595Z,101606.75
2023-04-17T19:14:26.131Z,101613.06
2023-04-17T19:17:27.640Z,101613.06
2023-04-17T19:20:29.110Z,101623.78
2023-04-17T19:23:30.908Z,101623.66
2023-04-17T19:26:32.421Z,101623.66
2023-04-17T19:29:33.876Z,101624.63
2023-04-17T19:32:35.468Z,101624.63
2023-04-17T19:35:37.122Z,101627.34
2023-04-17T19:38:38.608Z,101634.53
2023-04-17T19:41:40.087Z,101637.22
2023-04-17T19:44:41.529Z,101642.66
2023-04-17T19:47:43.025Z,101643.63
2023-04-17T19:50:44.590Z,101644.53
2023-04-17T19:53:47.654Z,101646.22
2023-04-17T19:56:49.507Z,101648.09
2023-04-17T19:59:50.969Z,101651.66
2023-04-17T20:02:52.503Z,101651.53
2023-04-17T20:05:54.831Z,101653.25
2023-04-17T20:08:58.342Z,101649.53
2023-04-17T20:11:59.972Z,101652.13
2023-04-17T20:15:01.456Z,101652.00
2023-04-17T20:18:03.073Z,101659.88
2023-04-17T20:21:05.786Z,101659.72
2023-04-17T20:24:07.335Z,101664.03
2023-04-17T20:27:08.766Z,101662.06
2023-04-17T20:30:14.375Z,101662.78
2023-04-17T20:33:15.904Z,101664.50
2023-04-17T20:36:17.480Z,101657.94
2023-04-17T20:39:19.002Z,101653.25
2023-04-17T20:42:20.617Z,101649.41
2023-04-17T20:45:22.086Z,101655.56
2023-04-17T20:48:24.997Z,101650.03
2023-04-17T20:51:27.235Z,101654.44
2023-04-17T20:54:29.338Z,101655.28
2023-04-17T20:57:30.903Z,101654.44
2023-04-17T21:00:33.693Z,101651.59
2023-04-17T21:03:35.345Z,101652.47
2023-04-17T21:06:36.816Z,101653.31
2023-04-17T21:09:38.250Z,101654.16
2023-04-17T21:12:39.721Z,101657.63
2023-04-17T21:15:42.187Z,101658.34
2023-04-17T21:18:43.652Z,101654.78
2023-04-17T21:21:45.138Z,101660.06
2023-04-17T21:24:46.589Z,101664.50
2023-04-17T21:27:48.153Z,101659.09
2023-04-17T21:30:49.608Z,101657.22
2023-04-17T21:33:51.223Z,101657.06
2023-04-17T21:36:55.881Z,101658.66
2023-04-17T21:39:57.506Z,101648.81
2023-04-17T21:43:00.527Z,101647.78
2023-04-17T21:46:02.210Z,101650.66
2023-04-17T21:49:04.254Z,101654.22
2023-04-17T21:52:05.697Z,101654.34
2023-04-17T21:55:07.731Z,101646.22
2023-04-17T21:58:09.209Z,101654.34
2023-04-17T22:01:10.840Z,101655.38
2023-04-17T22:04:12.689Z,101654.50
2023-04-17T22:07:14.345Z,101654.50
2023-04-17T22:10:15.827Z,101651.78
2023-04-17T22:13:17.446Z,101645.50
2023-04-17T22:16:18.980Z,101650.94
2023-04-17T22:19:20.631Z,101641.91
2023-04-17T22:22:22.086Z,101645.50
2023-04-17T22:25:23.615Z,101650.94
2023-04-17T22:28:28.122Z,101652.78
2023-04-17T22:31:29.753Z,101648.22
2023-04-17T22:34:31.328Z,101647.34
2023-04-17T22:37:32.784Z,101650.94
2023-04-17T22:40:34.846Z,101650.94
2023-04-17T22:43:36.383Z,101658.19
2023-04-17T22:46:38.077Z,101649.94
2023-04-17T22:49:40.551Z,101652.78
2023-04-17T22:52:42.082Z,101650.06
2023-04-17T22:55:43.558Z,101653.66
2023-04-17T22:58:45.050Z,101653.66
2023-04-17T23:01:46.592Z,101651.91
2023-04-17T23:04:48.153Z,101656.38
2023-04-17T23:07:49.746Z,101658.19
2023-04-17T23:10:59.590Z,101658.06
2023-04-17T23:14:01.783Z,101654.63
2023-04-17T23:17:03.266Z,101660.06
2023-04-17T23:20:05.439Z,101660.78
2023-04-17T23:23:06.927Z,101663.50
2023-04-17T23:26:08.634Z,101662.66
2023-04-17T23:29:10.128Z,101655.38
2023-04-17T23:32:11.726Z,101668.09
2023-04-17T23:35:13.574Z,101660.91
2023-04-17T23:38:15.213Z,101665.38
2023-04-17T23:41:16.702Z,101660.06
2023-04-17T23:44:18.176Z,101657.34
2023-04-17T23:47:19.649Z,101659.22
2023-04-17T23:50:21.220Z,101653.78
2023-04-17T23:53:22.783Z,101653.91
2023-04-17T23:56:24.254Z,101652.19
2023-04-17T23:59:25.763Z,101654.91
